Airfield :
LOGIN :

Register | Disclaimer

   EN    FR    IT 

 










Legend :    VFR   Marginal VFR   IFR   Intensive IFR   Very Intensive IFR
Visi :
Ceiling :
>= 8 km
>= 3000ft
5 to 8 km
1000 to 3000 ft
1500m to 5 km
500 to 1000 ft
800 to 1500m
200 to 500 ft
< 800m
< 200 ft
Symbols :   Thunderstorms  Fog  Heavy snow  Heavy precipitations  Wind > 20 kt
SIGMETs :     Misc.  Thunderstorms  Icing  Turbulence  Mountain Waves  Volcanic Ashes






- Airport Elevation : 36 ft
- IATA code : LTQ


LFAT - Le Touquet

CURRENT METAR :
  • 231630Z AUTO 18003KT 9999 -RA FEW029 OVC052 13/09 Q1025 NOSIG

EXPIRED METARs :
  • 231600Z AUTO 22003KT 190V250 9999 FEW029 BKN056 14/08 Q1025 NOSIG
  • 231530Z AUTO 21004KT 160V240 9999 FEW028 BKN056 15/09 Q1026 NOSIG
  • 231500Z AUTO 16005KT 130V230 9999 BKN025 BKN031 OVC054 15/10 Q1026 NOSIG
  • 231430Z AUTO 14005KT 110V170 CAVOK 14/10 Q1026 NOSIG
  • 231400Z AUTO 15004KT CAVOK 14/09 Q1026 NOSIG

TAF TAF LFAT
Valid from the 23 at 15:00 until the 24 at 00:00 UTC


231400Z 2315/2324 VRB03KT CAVOK
ATIS : +33 3 21 06 62 84



MET'MAP, your aeronautical weather chart ! - Copyright ORBIFLY December 2007 - Disclaimer

ORBIFLY MET'MAP TEAM :

Programming & Development : Alexandra Zaïnal
Concept & original design : Baudouin d'Aumeries
Assistance for programming : Marc-Olivier Méhu
Technical & hardware support : Manuel Goepfert

Contact : metmap@orbifly.com




SOURCES & CREDITS :

   NOAA